sensor_id;sensor_type;location;lat;lon;timestamp;pressure;altitude;pressure_sealevel;temperature;humidity
51687;BME280;37774;52.192;4.584;2023-05-01T00:01:13;101820.09;;;7.92;100.00
51687;BME280;37774;52.192;4.584;2023-05-01T00:03:59;101763.31;;;7.54;100.00
51687;BME280;37774;52.192;4.584;2023-05-01T00:06:44;101761.53;;;7.51;100.00
51687;BME280;37774;52.192;4.584;2023-05-01T00:09:30;101556.00;;;6.40;100.00
51687;BME280;37774;52.192;4.584;2023-05-01T00:12:16;101840.19;;;8.04;100.00
51687;BME280;37774;52.192;4.584;2023-05-01T00:15:03;101774.03;;;7.72;100.00
51687;BME280;37774;52.192;4.584;2023-05-01T00:17:49;101808.28;;;8.05;100.00
51687;BME280;37774;52.192;4.584;2023-05-01T00:20:35;101733.31;;;7.64;100.00
51687;BME280;37774;52.192;4.584;2023-05-01T00:23:21;101795.28;;;8.02;100.00
51687;BME280;37774;52.192;4.584;2023-05-01T00:26:06;101719.31;;;7.52;100.00
51687;BME280;37774;52.192;4.584;2023-05-01T00:28:51;101748.09;;;7.69;100.00
51687;BME280;37774;52.192;4.584;2023-05-01T00:31:38;101708.03;;;7.49;100.00
51687;BME280;37774;52.192;4.584;2023-05-01T00:34:25;101733.13;;;7.54;100.00
51687;BME280;37774;52.192;4.584;2023-05-01T00:37:11;101772.69;;;7.93;100.00
51687;BME280;37774;52.192;4.584;2023-05-01T00:39:56;101727.97;;;7.54;100.00
51687;BME280;37774;52.192;4.584;2023-05-01T00:42:42;101484.19;;;6.22;100.00
51687;BME280;37774;52.192;4.584;2023-05-01T00:45:27;101758.56;;;7.75;100.00
51687;BME280;37774;52.192;4.584;2023-05-01T00:48:14;101736.28;;;7.85;100.00
51687;BME280;37774;52.192;4.584;2023-05-01T00:51:00;101643.22;;;7.41;100.00
51687;BME280;37774;52.192;4.584;2023-05-01T00:53:48;101649.41;;;7.48;100.00
51687;BME280;37774;52.192;4.584;2023-05-01T00:56:35;101604.09;;;7.22;100.00
51687;BME280;37774;52.192;4.584;2023-05-01T00:59:21;101659.06;;;7.59;100.00
51687;BME280;37774;52.192;4.584;2023-05-01T01:02:06;101538.53;;;6.71;100.00
51687;BME280;37774;52.192;4.584;2023-05-01T01:04:53;101676.34;;;7.60;100.00
51687;BME280;37774;52.192;4.584;2023-05-01T01:07:41;101637.38;;;7.50;100.00
51687;BME280;37774;52.192;4.584;2023-05-01T01:10:34;101511.06;;;6.76;100.00
51687;BME280;37774;52.192;4.584;2023-05-01T01:13:27;101647.03;;;7.62;100.00
51687;BME280;37774;52.192;4.584;2023-05-01T01:16:19;101640.16;;;7.62;100.00
51687;BME280;37774;52.192;4.584;2023-05-01T01:19:31;101539.91;;;6.98;100.00
51687;BME280;37774;52.192;4.584;2023-05-01T01:22:25;101613.31;;;7.55;100.00
51687;BME280;37774;52.192;4.584;2023-05-01T01:25:46;101519.22;;;6.98;100.00
51687;BME280;37774;52.192;4.584;2023-05-01T01:29:02;101568.88;;;7.27;100.00
51687;BME280;37774;52.192;4.584;2023-05-01T01:31:59;101606.97;;;7.38;100.00
51687;BME280;37774;52.192;4.584;2023-05-01T01:34:49;101492.16;;;6.77;100.00
51687;BME280;37774;52.192;4.584;2023-05-01T01:37:40;101555.56;;;7.07;100.00
51687;BME280;37774;52.192;4.584;2023-05-01T01:40:32;101454.41;;;6.38;100.00
51687;BME280;37774;52.192;4.584;2023-05-01T01:43:20;101430.31;;;6.39;100.00
51687;BME280;37774;52.192;4.584;2023-05-01T01:46:09;101555.09;;;7.28;100.00
51687;BME280;37774;52.192;4.584;2023-05-01T01:48:55;101454.69;;;6.53;100.00
51687;BME280;37774;52.192;4.584;2023-05-01T01:51:44;101378.00;;;6.03;100.00
51687;BME280;37774;52.192;4.584;2023-05-01T01:54:34;101482.59;;;6.73;100.00
51687;BME280;37774;52.192;4.584;2023-05-01T01:57:23;101489.41;;;6.68;100.00
51687;BME280;37774;52.192;4.584;2023-05-01T02:00:11;101548.19;;;7.27;100.00
51687;BME280;37774;52.192;4.584;2023-05-01T02:02:59;101518.06;;;6.82;100.00
51687;BME280;37774;52.192;4.584;2023-05-01T02:05:46;101488.19;;;6.96;100.00
51687;BME280;37774;52.192;4.584;2023-05-01T02:08:36;101552.75;;;7.42;100.00
51687;BME280;37774;52.192;4.584;2023-05-01T02:11:23;101543.31;;;7.46;100.00
51687;BME280;37774;52.192;4.584;2023-05-01T02:14:08;101546.59;;;7.36;100.00
51687;BME280;37774;52.192;4.584;2023-05-01T02:16:55;101481.72;;;6.72;100.00
51687;BME280;37774;52.192;4.584;2023-05-01T02:19:42;101561.91;;;7.23;100.00
51687;BME280;37774;52.192;4.584;2023-05-01T02:22:29;101545.59;;;7.27;100.00
51687;BME280;37774;52.192;4.584;2023-05-01T02:25:17;101480.41;;;6.93;100.00
51687;BME280;37774;52.192;4.584;2023-05-01T02:28:05;101469.75;;;6.78;100.00
51687;BME280;37774;52.192;4.584;2023-05-01T02:30:53;101536.06;;;7.25;100.00
51687;BME280;37774;52.192;4.584;2023-05-01T02:33:38;101549.13;;;7.34;100.00
51687;BME280;37774;52.192;4.584;2023-05-01T02:36:24;101463.63;;;6.72;100.00
51687;BME280;37774;52.192;4.584;2023-05-01T02:39:10;101501.91;;;6.94;100.00
51687;BME280;37774;52.192;4.584;2023-05-01T02:41:57;101547.28;;;7.27;100.00
51687;BME280;37774;52.192;4.584;2023-05-01T02:44:49;101520.22;;;7.06;100.00
51687;BME280;37774;52.192;4.584;2023-05-01T02:47:37;101457.44;;;6.63;100.00
51687;BME280;37774;52.192;4.584;2023-05-01T02:50:23;101539.41;;;7.19;100.00
51687;BME280;37774;52.192;4.584;2023-05-01T02:53:11;101536.75;;;7.14;100.00
51687;BME280;37774;52.192;4.584;2023-05-01T02:55:58;101446.06;;;6.53;100.00
51687;BME280;37774;52.192;4.584;2023-05-01T02:58:46;101530.66;;;7.11;100.00
51687;BME280;37774;52.192;4.584;2023-05-01T03:01:33;101362.53;;;6.05;100.00
51687;BME280;37774;52.192;4.584;2023-05-01T03:04:18;101471.25;;;6.65;100.00
51687;BME280;37774;52.192;4.584;2023-05-01T03:07:04;101468.50;;;6.55;100.00
51687;BME280;37774;52.192;4.584;2023-05-01T03:09:49;101560.34;;;6.85;100.00
51687;BME280;37774;52.192;4.584;2023-05-01T03:12:35;101431.19;;;6.39;100.00
51687;BME280;37774;52.192;4.584;2023-05-01T03:15:22;101508.94;;;6.99;100.00
51687;BME280;37774;52.192;4.584;2023-05-01T03:18:07;101517.53;;;6.98;100.00
51687;BME280;37774;52.192;4.584;2023-05-01T03:20:53;101489.69;;;6.85;100.00
51687;BME280;37774;52.192;4.584;2023-05-01T03:23:39;101463.63;;;6.71;100.00
51687;BME280;37774;52.192;4.584;2023-05-01T03:26:25;101433.88;;;6.46;100.00
51687;BME280;37774;52.192;4.584;2023-05-01T03:29:11;101376.69;;;6.25;100.00
51687;BME280;37774;52.192;4.584;2023-05-01T03:31:58;101400.19;;;6.39;100.00
51687;BME280;37774;52.192;4.584;2023-05-01T03:34:44;101475.06;;;6.85;100.00
51687;BME280;37774;52.192;4.584;2023-05-01T03:37:29;101485.56;;;6.95;100.00
51687;BME280;37774;52.192;4.584;2023-05-01T03:40:15;101310.66;;;5.91;100.00
51687;BME280;37774;52.192;4.584;2023-05-01T03:43:02;101461.28;;;6.85;100.00
51687;BME280;37774;52.192;4.584;2023-05-01T03:45:47;101399.47;;;6.47;100.00
51687;BME280;37774;52.192;4.584;2023-05-01T03:48:34;101435.22;;;6.71;100.00
51687;BME280;37774;52.192;4.584;2023-05-01T03:51:19;101464.16;;;7.00;100.00
51687;BME280;37774;52.192;4.584;2023-05-01T03:54:04;101381.84;;;6.24;100.00
51687;BME280;37774;52.192;4.584;2023-05-01T03:56:49;101371.63;;;6.30;100.00
51687;BME280;37774;52.192;4.584;2023-05-01T03:59:35;101268.34;;;5.81;100.00
51687;BME280;37774;52.192;4.584;2023-05-01T04:02:20;101404.00;;;6.60;100.00
51687;BME280;37774;52.192;4.584;2023-05-01T04:05:07;101465.06;;;7.03;100.00
51687;BME280;37774;52.192;4.584;2023-05-01T04:07:53;101458.09;;;6.98;100.00
51687;BME280;37774;52.192;4.584;2023-05-01T04:10:38;101457.84;;;6.86;100.00
51687;BME280;37774;52.192;4.584;2023-05-01T04:13:23;101452.91;;;6.98;100.00
51687;BME280;37774;52.192;4.584;2023-05-01T04:16:09;101406.69;;;6.66;100.00
51687;BME280;37774;52.192;4.584;2023-05-01T04:18:55;101457.09;;;6.92;100.00
51687;BME280;37774;52.192;4.584;2023-05-01T04:21:42;101456.41;;;7.00;100.00
51687;BME280;37774;52.192;4.584;2023-05-01T04:24:27;101454.81;;;7.09;100.00
51687;BME280;37774;52.192;4.584;2023-05-01T04:27:13;101438.22;;;6.96;100.00
51687;BME280;37774;52.192;4.584;2023-05-01T04:29:58;101452.31;;;7.15;100.00
51687;BME280;37774;52.192;4.584;2023-05-01T04:32:44;101444.53;;;7.12;100.00
51687;BME280;37774;52.192;4.584;2023-05-01T04:35:29;101438.50;;;7.13;100.00
51687;BME280;37774;52.192;4.584;2023-05-01T04:38:16;101384.66;;;6.85;100.00
51687;BME280;37774;52.192;4.584;2023-05-01T04:41:03;101327.41;;;6.61;100.00
51687;BME280;37774;52.192;4.584;2023-05-01T04:43:49;101430.19;;;7.34;100.00
51687;BME280;37774;52.192;4.584;2023-05-01T04:46:35;101356.41;;;6.96;100.00
51687;BME280;37774;52.192;4.584;2023-05-01T04:49:20;101438.03;;;7.39;100.00
51687;BME280;37774;52.192;4.584;2023-05-01T04:52:05;101442.38;;;7.41;100.00
51687;BME280;37774;52.192;4.584;2023-05-01T04:54:52;101324.28;;;6.82;100.00
51687;BME280;37774;52.192;4.584;2023-05-01T04:57:37;101325.44;;;6.99;100.00
51687;BME280;37774;52.192;4.584;2023-05-01T05:00:23;101427.28;;;7.69;100.00
51687;BME280;37774;52.192;4.584;2023-05-01T05:03:09;101342.22;;;7.28;100.00
51687;BME280;37774;52.192;4.584;2023-05-01T05:05:54;101147.78;;;6.20;100.00
51687;BME280;37774;52.192;4.584;2023-05-01T05:08:39;101354.41;;;7.38;100.00
51687;BME280;37774;52.192;4.584;2023-05-01T05:11:26;101458.75;;;7.99;100.00
51687;BME280;37774;52.192;4.584;2023-05-01T05:14:12;101400.66;;;7.77;100.00
51687;BME280;37774;52.192;4.584;2023-05-01T05:16:57;101364.34;;;7.72;100.00
51687;BME280;37774;52.192;4.584;2023-05-01T05:19:43;101168.78;;;6.45;100.00
51687;BME280;37774;52.192;4.584;2023-05-01T05:22:28;101430.50;;;8.17;100.00
51687;BME280;37774;52.192;4.584;2023-05-01T05:25:13;101399.31;;;8.10;100.00
51687;BME280;37774;52.192;4.584;2023-05-01T05:28:00;101423.78;;;8.35;100.00
51687;BME280;37774;52.192;4.584;2023-05-01T05:30:46;101416.94;;;8.42;100.00
51687;BME280;37774;52.192;4.584;2023-05-01T05:33:32;101416.13;;;8.47;100.00
51687;BME280;37774;52.192;4.584;2023-05-01T05:36:17;101417.13;;;8.56;100.00
51687;BME280;37774;52.192;4.584;2023-05-01T05:39:03;101361.56;;;8.30;100.00
51687;BME280;37774;52.192;4.584;2023-05-01T05:41:49;101419.06;;;8.79;100.00
51687;BME280;37774;52.192;4.584;2023-05-01T05:44:38;101059.81;;;6.69;100.00
51687;BME280;37774;52.192;4.584;2023-05-01T05:47:23;101414.97;;;9.04;100.00
51687;BME280;37774;52.192;4.584;2023-05-01T05:50:09;101309.91;;;8.44;100.00
51687;BME280;37774;52.192;4.584;2023-05-01T05:52:54;101348.22;;;8.80;100.00
51687;BME280;37774;52.192;4.584;2023-05-01T05:55:40;101367.34;;;8.94;100.00
51687;BME280;37774;52.192;4.584;2023-05-01T05:58:26;101441.13;;;9.37;100.00
51687;BME280;37774;52.192;4.584;2023-05-01T06:01:13;101417.84;;;9.43;100.00
51687;BME280;37774;52.192;4.584;2023-05-01T06:03:59;101408.38;;;9.51;100.00
51687;BME280;37774;52.192;4.584;2023-05-01T06:06:44;101287.78;;;8.84;100.00
51687;BME280;37774;52.192;4.584;2023-05-01T06:09:29;101337.28;;;9.23;100.00
51687;BME280;37774;52.192;4.584;2023-05-01T06:12:15;101319.22;;;9.35;100.00
51687;BME280;37774;52.192;4.584;2023-05-01T06:15:00;101371.22;;;9.61;100.00
51687;BME280;37774;52.192;4.584;2023-05-01T06:17:47;101396.44;;;9.83;100.00
51687;BME280;37774;52.192;4.584;2023-05-01T06:20:33;101362.63;;;9.72;100.00
51687;BME280;37774;52.192;4.584;2023-05-01T06:23:20;101416.44;;;10.08;100.00
51687;BME280;37774;52.192;4.584;2023-05-01T06:26:05;101336.69;;;9.72;100.00
51687;BME280;37774;52.192;4.584;2023-05-01T06:28:51;101411.38;;;10.41;100.00
51687;BME280;37774;52.192;4.584;2023-05-01T06:31:37;101420.06;;;10.49;100.00
51687;BME280;37774;52.192;4.584;2023-05-01T06:34:24;101437.38;;;10.52;100.00
51687;BME280;37774;52.192;4.584;2023-05-01T06:37:09;101373.22;;;10.25;100.00
51687;BME280;37774;52.192;4.584;2023-05-01T06:39:55;101430.50;;;10.82;100.00
51687;BME280;37774;52.192;4.584;2023-05-01T06:42:40;101383.69;;;10.52;100.00
51687;BME280;37774;52.192;4.584;2023-05-01T06:45:26;101394.06;;;10.43;100.00
51687;BME280;37774;52.192;4.584;2023-05-01T06:48:11;101468.66;;;11.02;100.00
51687;BME280;37774;52.192;4.584;2023-05-01T06:50:58;101450.47;;;11.05;100.00
51687;BME280;37774;52.192;4.584;2023-05-01T06:53:43;101473.00;;;11.21;100.00
51687;BME280;37774;52.192;4.584;2023-05-01T06:56:29;101446.09;;;10.90;100.00
51687;BME280;37774;52.192;4.584;2023-05-01T06:59:15;101379.34;;;10.56;100.00
51687;BME280;37774;52.192;4.584;2023-05-01T07:02:00;101491.22;;;11.23;100.00
51687;BME280;37774;52.192;4.584;2023-05-01T07:04:46;101395.81;;;10.63;100.00
51687;BME280;37774;52.192;4.584;2023-05-01T07:07:33;101508.56;;;11.33;100.00
51687;BME280;37774;52.192;4.584;2023-05-01T07:10:18;101510.31;;;11.34;100.00
51687;BME280;37774;52.192;4.584;2023-05-01T07:13:04;101420.09;;;10.65;100.00
51687;BME280;37774;52.192;4.584;2023-05-01T07:15:49;101492.97;;;11.27;100.00
51687;BME280;37774;52.192;4.584;2023-05-01T07:18:35;101208.53;;;9.34;100.00
51687;BME280;37774;52.192;4.584;2023-05-01T07:21:21;101530.22;;;11.28;100.00
51687;BME280;37774;52.192;4.584;2023-05-01T07:24:07;101511.16;;;11.16;100.00
51687;BME280;37774;52.192;4.584;2023-05-01T07:26:52;101504.22;;;11.12;100.00
51687;BME280;37774;52.192;4.584;2023-05-01T07:29:39;101525.03;;;11.14;100.00
51687;BME280;37774;52.192;4.584;2023-05-01T07:32:25;101531.06;;;11.06;100.00
51687;BME280;37774;52.192;4.584;2023-05-01T07:35:10;101590.97;;;11.68;100.00
51687;BME280;37774;52.192;4.584;2023-05-01T07:37:56;101571.88;;;11.34;100.00
51687;BME280;37774;52.192;4.584;2023-05-01T07:40:42;101600.53;;;11.74;100.00
51687;BME280;37774;52.192;4.584;2023-05-01T07:43:28;101543.25;;;11.40;100.00
51687;BME280;37774;52.192;4.584;2023-05-01T07:46:13;101589.25;;;11.74;100.00
51687;BME280;37774;52.192;4.584;2023-05-01T07:49:00;101576.19;;;12.08;100.00
51687;BME280;37774;52.192;4.584;2023-05-01T07:51:45;101478.19;;;11.48;100.00
51687;BME280;37774;52.192;4.584;2023-05-01T07:54:32;101443.47;;;11.50;100.00
51687;BME280;37774;52.192;4.584;2023-05-01T07:57:19;101558.72;;;12.50;100.00
51687;BME280;37774;52.192;4.584;2023-05-01T08:00:06;101496.31;;;12.07;100.00
51687;BME280;37774;52.192;4.584;2023-05-01T08:02:52;101549.84;;;12.87;100.00
51687;BME280;37774;52.192;4.584;2023-05-01T08:05:39;101507.38;;;12.60;100.00
51687;BME280;37774;52.192;4.584;2023-05-01T08:08:24;101505.63;;;12.67;100.00
51687;BME280;37774;52.192;4.584;2023-05-01T08:11:10;101514.19;;;12.92;100.00
51687;BME280;37774;52.192;4.584;2023-05-01T08:13:57;101471.88;;;12.37;100.00
51687;BME280;37774;52.192;4.584;2023-05-01T08:16:42;101582.81;;;13.04;100.00
51687;BME280;37774;52.192;4.584;2023-05-01T08:19:28;101513.16;;;13.10;100.00
51687;BME280;37774;52.192;4.584;2023-05-01T08:22:14;101497.59;;;12.99;100.00
51687;BME280;37774;52.192;4.584;2023-05-01T08:24:59;101551.28;;;13.36;100.00
51687;BME280;37774;52.192;4.584;2023-05-01T08:27:45;101572.88;;;13.55;100.00
51687;BME280;37774;52.192;4.584;2023-05-01T08:30:32;101530.56;;;13.08;100.00
51687;BME280;37774;52.192;4.584;2023-05-01T08:33:17;101590.91;;;13.88;100.00
51687;BME280;37774;52.192;4.584;2023-05-01T08:36:03;101607.53;;;13.76;100.00
51687;BME280;37774;52.192;4.584;2023-05-01T08:38:48;101608.19;;;14.01;100.00
51687;BME280;37774;52.192;4.584;2023-05-01T08:41:34;101534.56;;;13.59;100.00
51687;BME280;37774;52.192;4.584;2023-05-01T08:44:24;101617.16;;;13.72;100.00
51687;BME280;37774;52.192;4.584;2023-05-01T08:47:14;101594.56;;;13.68;100.00
51687;BME280;37774;52.192;4.584;2023-05-01T08:49:59;101557.09;;;13.71;100.00
51687;BME280;37774;52.192;4.584;2023-05-01T08:52:46;101620.28;;;14.13;100.00
51687;BME280;37774;52.192;4.584;2023-05-01T08:55:33;101476.41;;;13.44;100.00
51687;BME280;37774;52.192;4.584;2023-05-01T08:58:23;101586.81;;;14.48;100.00
51687;BME280;37774;52.192;4.584;2023-05-01T09:01:12;101613.53;;;14.75;100.00
51687;BME280;37774;52.192;4.584;2023-05-01T09:04:03;101615.19;;;14.82;100.00
51687;BME280;37774;52.192;4.584;2023-05-01T09:06:50;101623.84;;;14.87;100.00
51687;BME280;37774;52.192;4.584;2023-05-01T09:09:38;101620.19;;;14.99;100.00
51687;BME280;37774;52.192;4.584;2023-05-01T09:12:24;101629.78;;;14.99;100.00
51687;BME280;37774;52.192;4.584;2023-05-01T09:15:10;101592.50;;;14.81;100.00
51687;BME280;37774;52.192;4.584;2023-05-01T09:17:59;101550.88;;;14.63;100.00
51687;BME280;37774;52.192;4.584;2023-05-01T09:20:48;101623.16;;;14.73;100.00
51687;BME280;37774;52.192;4.584;2023-05-01T09:23:34;101604.06;;;14.61;100.00
51687;BME280;37774;52.192;4.584;2023-05-01T09:26:20;101644.06;;;14.73;100.00
51687;BME280;37774;52.192;4.584;2023-05-01T09:29:06;101643.63;;;15.07;100.00
51687;BME280;37774;52.192;4.584;2023-05-01T09:31:53;101586.88;;;14.40;100.00
51687;BME280;37774;52.192;4.584;2023-05-01T09:34:38;101649.00;;;14.98;100.00
51687;BME280;37774;52.192;4.584;2023-05-01T09:37:26;101620.53;;;14.71;100.00
51687;BME280;37774;52.192;4.584;2023-05-01T09:40:13;101636.78;;;14.97;100.00
51687;BME280;37774;52.192;4.584;2023-05-01T09:42:59;101586.53;;;14.73;100.00
51687;BME280;37774;52.192;4.584;2023-05-01T09:45:58;101562.59;;;14.29;100.00
51687;BME280;37774;52.192;4.584;2023-05-01T09:48:55;101615.34;;;14.70;100.00
51687;BME280;37774;52.192;4.584;2023-05-01T09:51:41;101664.00;;;14.82;100.00
51687;BME280;37774;52.192;4.584;2023-05-01T09:54:29;101676.59;;;14.47;100.00
51687;BME280;37774;52.192;4.584;2023-05-01T09:57:14;101620.34;;;14.07;100.00
51687;BME280;37774;52.192;4.584;2023-05-01T10:00:03;101624.13;;;13.73;100.00
51687;BME280;37774;52.192;4.584;2023-05-01T10:02:51;101654.47;;;13.87;100.00
51687;BME280;37774;52.192;4.584;2023-05-01T10:05:41;101643.47;;;13.41;100.00
51687;BME280;37774;52.192;4.584;2023-05-01T10:08:42;101648.78;;;13.26;100.00
51687;BME280;37774;52.192;4.584;2023-05-01T10:11:29;101657.56;;;13.06;100.00
51687;BME280;37774;52.192;4.584;2023-05-01T10:14:15;101644.66;;;12.78;100.00
51687;BME280;37774;52.192;4.584;2023-05-01T10:17:16;101585.75;;;12.17;100.00
51687;BME280;37774;52.192;4.584;2023-05-01T10:20:01;101629.16;;;12.21;100.00
51687;BME280;37774;52.192;4.584;2023-05-01T10:22:46;101571.03;;;11.67;100.00
51687;BME280;37774;52.192;4.584;2023-05-01T10:25:33;101617.03;;;12.01;100.00
51687;BME280;37774;52.192;4.584;2023-05-01T10:28:23;101447.84;;;11.00;100.00
51687;BME280;37774;52.192;4.584;2023-05-01T10:31:12;101526.75;;;11.47;100.00
51687;BME280;37774;52.192;4.584;2023-05-01T10:33:57;101503.31;;;11.02;100.00
51687;BME280;37774;52.192;4.584;2023-05-01T10:36:45;101468.66;;;10.83;100.00
51687;BME280;37774;52.192;4.584;2023-05-01T10:39:32;101553.66;;;11.29;100.00
51687;BME280;37774;52.192;4.584;2023-05-01T10:42:18;101550.19;;;11.21;100.00
51687;BME280;37774;52.192;4.584;2023-05-01T10:45:28;101512.88;;;11.11;100.00
51687;BME280;37774;52.192;4.584;2023-05-01T10:48:53;101525.03;;;11.21;100.00
51687;BME280;37774;52.192;4.584;2023-05-01T10:51:57;101518.97;;;11.18;100.00
51687;BME280;37774;52.192;4.584;2023-05-01T10:54:42;101496.44;;;11.23;100.00
51687;BME280;37774;52.192;4.584;2023-05-01T10:57:41;101472.16;;;11.18;100.00
51687;BME280;37774;52.192;4.584;2023-05-01T11:00:28;101488.59;;;11.55;100.00
51687;BME280;37774;52.192;4.584;2023-05-01T11:03:33;101500.72;;;11.64;100.00
51687;BME280;37774;52.192;4.584;2023-05-01T11:06:18;101482.53;;;11.43;100.00
51687;BME280;37774;52.192;4.584;2023-05-01T11:09:37;101493.78;;;11.59;100.00
51687;BME280;37774;52.192;4.584;2023-05-01T11:12:48;101505.06;;;11.59;100.00
51687;BME280;37774;52.192;4.584;2023-05-01T11:15:39;101476.44;;;11.53;100.00
51687;BME280;37774;52.192;4.584;2023-05-01T11:18:45;101499.88;;;11.59;100.00
51687;BME280;37774;52.192;4.584;2023-05-01T11:21:31;101472.97;;;11.68;100.00
51687;BME280;37774;52.192;4.584;2023-05-01T11:24:17;101473.81;;;11.75;100.00
51687;BME280;37774;52.192;4.584;2023-05-01T11:27:03;101459.91;;;11.82;100.00
51687;BME280;37774;52.192;4.584;2023-05-01T11:29:49;101452.03;;;11.94;100.00
51687;BME280;37774;52.192;4.584;2023-05-01T11:32:36;101446.84;;;11.91;100.00
51687;BME280;37774;52.192;4.584;2023-05-01T11:35:23;101431.13;;;12.29;100.00
51687;BME280;37774;52.192;4.584;2023-05-01T11:38:15;101386.91;;;12.11;100.00
51687;BME280;37774;52.192;4.584;2023-05-01T11:41:02;101392.19;;;11.85;100.00
51687;BME280;37774;52.192;4.584;2023-05-01T11:43:48;101432.59;;;12.65;100.00
51687;BME280;37774;52.192;4.584;2023-05-01T11:46:34;101305.28;;;12.09;100.00
51687;BME280;37774;52.192;4.584;2023-05-01T11:49:26;101396.28;;;12.37;100.00
51687;BME280;37774;52.192;4.584;2023-05-01T11:52:12;101452.56;;;12.69;100.00
51687;BME280;37774;52.192;4.584;2023-05-01T11:54:58;101224.00;;;11.47;100.00
51687;BME280;37774;52.192;4.584;2023-05-01T11:57:47;101469.00;;;12.85;100.00
51687;BME280;37774;52.192;4.584;2023-05-01T12:00:34;101476.53;;;13.26;100.00
51687;BME280;37774;52.192;4.584;2023-05-01T12:03:21;101391.78;;;12.63;100.00
51687;BME280;37774;52.192;4.584;2023-05-01T12:06:08;101474.72;;;13.33;100.00
51687;BME280;37774;52.192;4.584;2023-05-01T12:08:53;101467.44;;;13.70;100.00
51687;BME280;37774;52.192;4.584;2023-05-01T12:11:39;101379.38;;;12.93;100.00
51687;BME280;37774;52.192;4.584;2023-05-01T12:14:25;101474.19;;;13.90;100.00
51687;BME280;37774;52.192;4.584;2023-05-01T12:17:10;101367.66;;;13.36;100.00
51687;BME280;37774;52.192;4.584;2023-05-01T12:19:55;101445.94;;;14.20;100.00
51687;BME280;37774;52.192;4.584;2023-05-01T12:22:49;101485.66;;;14.50;100.00
51687;BME280;37774;52.192;4.584;2023-05-01T12:25:34;101461.28;;;14.48;100.00
51687;BME280;37774;52.192;4.584;2023-05-01T12:28:20;101478.31;;;14.77;100.00
51687;BME280;37774;52.192;4.584;2023-05-01T12:31:07;101509.56;;;15.44;100.00
51687;BME280;37774;52.192;4.584;2023-05-01T12:33:53;101503.72;;;15.27;100.00
51687;BME280;37774;52.192;4.584;2023-05-01T12:36:39;101552.94;;;15.04;100.00
51687;BME280;37774;52.192;4.584;2023-05-01T12:39:35;101585.56;;;15.41;100.00
51687;BME280;37774;52.192;4.584;2023-05-01T12:42:22;101547.09;;;15.97;100.00
51687;BME280;37774;52.192;4.584;2023-05-01T12:45:09;101558.13;;;15.62;100.00
51687;BME280;37774;52.192;4.584;2023-05-01T12:47:57;101564.31;;;16.10;100.00
51687;BME280;37774;52.192;4.584;2023-05-01T12:50:43;101562.94;;;16.34;100.00
51687;BME280;37774;52.192;4.584;2023-05-01T12:53:29;101513.31;;;16.25;100.00
51687;BME280;37774;52.192;4.584;2023-05-01T12:56:21;101620.25;;;16.99;100.00
51687;BME280;37774;52.192;4.584;2023-05-01T12:59:19;101608.28;;;17.62;100.00
51687;BME280;37774;52.192;4.584;2023-05-01T13:02:06;101610.75;;;16.91;100.00
51687;BME280;37774;52.192;4.584;2023-05-01T13:04:51;101543.78;;;16.73;100.00
51687;BME280;37774;52.192;4.584;2023-05-01T13:07:37;101603.44;;;16.65;100.00
51687;BME280;37774;52.192;4.584;2023-05-01T13:10:30;101645.13;;;17.21;100.00
51687;BME280;37774;52.192;4.584;2023-05-01T13:13:24;101615.63;;;17.10;100.00
51687;BME280;37774;52.192;4.584;2023-05-01T13:16:10;101597.34;;;16.63;100.00
51687;BME280;37774;52.192;4.584;2023-05-01T13:18:56;101650.47;;;16.76;100.00
51687;BME280;37774;52.192;4.584;2023-05-01T13:21:45;101426.03;;;15.27;100.00
51687;BME280;37774;52.192;4.584;2023-05-01T13:24:36;101655.13;;;16.61;100.00
51687;BME280;37774;52.192;4.584;2023-05-01T13:27:22;101648.34;;;16.49;100.00
51687;BME280;37774;52.192;4.584;2023-05-01T13:30:11;101641.84;;;16.69;100.00
51687;BME280;37774;52.192;4.584;2023-05-01T13:32:56;101644.75;;;16.99;100.00
51687;BME280;37774;52.192;4.584;2023-05-01T13:35:42;101647.41;;;16.98;100.00
51687;BME280;37774;52.192;4.584;2023-05-01T13:38:27;101621.50;;;17.21;100.00
51687;BME280;37774;52.192;4.584;2023-05-01T13:41:15;101622.91;;;16.96;100.00
51687;BME280;37774;52.192;4.584;2023-05-01T13:44:01;101645.28;;;17.15;100.00
51687;BME280;37774;52.192;4.584;2023-05-01T13:46:48;101619.59;;;16.87;100.00
51687;BME280;37774;52.192;4.584;2023-05-01T13:49:34;101654.19;;;17.08;100.00
51687;BME280;37774;52.192;4.584;2023-05-01T13:52:20;101633.63;;;16.86;100.00
51687;BME280;37774;52.192;4.584;2023-05-01T13:55:06;101674.59;;;16.93;100.00
51687;BME280;37774;52.192;4.584;2023-05-01T13:57:51;101675.31;;;17.02;100.00
51687;BME280;37774;52.192;4.584;2023-05-01T14:00:38;101681.84;;;16.80;100.00
51687;BME280;37774;52.192;4.584;2023-05-01T14:03:25;101673.75;;;17.34;100.00
51687;BME280;37774;52.192;4.584;2023-05-01T14:06:11;101667.66;;;18.07;100.00
51687;BME280;37774;52.192;4.584;2023-05-01T14:08:57;101648.34;;;18.08;100.00
51687;BME280;37774;52.192;4.584;2023-05-01T14:11:46;101645.69;;;18.10;100.00
51687;BME280;37774;52.192;4.584;2023-05-01T14:14:31;101653.72;;;18.37;100.00
51687;BME280;37774;52.192;4.584;2023-05-01T14:17:24;101564.41;;;17.99;100.00
51687;BME280;37774;52.192;4.584;2023-05-01T14:20:12;101641.78;;;18.57;100.00
51687;BME280;37774;52.192;4.584;2023-05-01T14:22:58;101639.50;;;19.06;100.00
51687;BME280;37774;52.192;4.584;2023-05-01T14:25:44;101602.78;;;18.39;100.00
51687;BME280;37774;52.192;4.584;2023-05-01T14:28:32;101611.47;;;18.43;100.00
51687;BME280;37774;52.192;4.584;2023-05-01T14:31:24;101554.47;;;17.77;100.00